createdAt,value
2023-02-03T00:00:32.978Z,0.00
2023-02-03T00:01:33.053Z,0.00
2023-02-03T00:02:32.965Z,0.00
2023-02-03T00:03:32.937Z,0.00
2023-02-03T00:04:32.937Z,0.00
2023-02-03T00:05:32.914Z,0.00
2023-02-03T00:06:32.898Z,0.00
2023-02-03T00:07:32.911Z,0.00
2023-02-03T00:08:32.857Z,0.00
2023-02-03T00:09:32.954Z,0.00
2023-02-03T00:10:32.825Z,0.00
2023-02-03T00:11:32.840Z,0.00
2023-02-03T00:12:32.807Z,0.00
2023-02-03T00:13:32.817Z,0.00
2023-02-03T00:14:32.807Z,0.00
2023-02-03T00:15:32.795Z,0.00
2023-02-03T00:16:32.815Z,0.00
2023-02-03T00:17:32.761Z,0.00
2023-02-03T00:18:32.735Z,0.00
2023-02-03T00:19:32.767Z,0.00
2023-02-03T00:20:32.697Z,0.00
2023-02-03T00:21:32.746Z,0.00
2023-02-03T00:22:32.688Z,0.00
2023-02-03T00:23:32.678Z,0.00
2023-02-03T00:24:32.666Z,0.00
2023-02-03T00:25:32.651Z,0.00
2023-02-03T00:26:32.860Z,0.00
2023-02-03T00:27:32.647Z,0.00
2023-02-03T00:28:32.598Z,0.00
2023-02-03T00:29:32.619Z,0.00
2023-02-03T00:30:32.565Z,0.00
2023-02-03T00:31:32.674Z,0.00
2023-02-03T00:32:32.655Z,0.00
2023-02-03T00:33:32.540Z,0.00
2023-02-03T00:34:32.559Z,0.00
2023-02-03T00:35:32.498Z,0.00
2023-02-03T00:36:32.514Z,0.00
2023-02-03T00:37:32.483Z,0.00
2023-02-03T00:38:32.489Z,0.00
2023-02-03T00:39:32.484Z,0.00
2023-02-03T00:40:32.439Z,0.00
2023-02-03T00:41:32.422Z,0.00
2023-02-03T00:42:32.414Z,0.00
2023-02-03T00:43:32.400Z,0.00
2023-02-03T00:44:32.390Z,0.00
2023-02-03T00:45:32.389Z,0.00
2023-02-03T00:46:32.365Z,0.00
2023-02-03T00:47:32.356Z,0.00
2023-02-03T00:48:32.338Z,0.00
2023-02-03T00:49:32.312Z,0.00
2023-02-03T00:50:32.318Z,0.00
2023-02-03T00:51:32.293Z,0.00
2023-02-03T00:52:32.272Z,0.00
2023-02-03T00:53:32.272Z,0.00
2023-02-03T00:54:33.731Z,0.00
2023-02-03T00:55:32.251Z,0.00
2023-02-03T00:56:32.222Z,0.00
2023-02-03T00:57:32.223Z,0.00
2023-02-03T00:58:32.205Z,0.00
2023-02-03T00:59:32.171Z,0.00
2023-02-03T01:00:32.174Z,0.00
2023-02-03T01:01:32.179Z,0.00
2023-02-03T01:02:32.215Z,0.00
2023-02-03T01:03:32.138Z,0.00
2023-02-03T01:04:32.113Z,0.00
2023-02-03T01:05:32.125Z,0.00
2023-02-03T01:06:32.093Z,0.00
2023-02-03T01:07:32.073Z,0.00
2023-02-03T01:08:32.061Z,0.00
2023-02-03T01:09:32.099Z,0.00
2023-02-03T01:10:32.055Z,0.00
2023-02-03T01:11:32.014Z,0.00
2023-02-03T01:12:32.006Z,0.00
2023-02-03T01:13:31.996Z,0.00
2023-02-03T01:14:32.000Z,0.00
2023-02-03T01:15:31.983Z,0.00
2023-02-03T01:16:31.989Z,0.00
2023-02-03T01:17:31.935Z,0.00
2023-02-03T01:18:31.950Z,0.00
2023-02-03T01:19:31.908Z,0.00
2023-02-03T01:20:31.917Z,0.00
2023-02-03T01:21:31.901Z,0.00
2023-02-03T01:22:31.873Z,0.00
2023-02-03T01:23:31.866Z,0.00
2023-02-03T01:24:36.311Z,0.00
2023-02-03T01:25:38.862Z,0.00
2023-02-03T01:26:34.297Z,0.00
2023-02-03T01:27:31.829Z,0.00
2023-02-03T01:28:31.780Z,0.00
2023-02-03T01:29:31.760Z,0.00
2023-02-03T01:30:31.802Z,0.00
2023-02-03T01:31:31.867Z,0.00
2023-02-03T01:32:31.730Z,0.00
2023-02-03T01:33:31.716Z,0.00
2023-02-03T01:34:31.711Z,0.00
2023-02-03T01:35:31.700Z,0.00
2023-02-03T01:36:31.681Z,0.00
2023-02-03T01:37:31.715Z,0.00
2023-02-03T01:38:31.650Z,0.00
2023-02-03T01:39:31.650Z,0.00
2023-02-03T01:40:31.651Z,0.00
2023-02-03T01:41:31.616Z,0.00
2023-02-03T01:42:31.602Z,0.00
2023-02-03T01:43:31.590Z,0.00
2023-02-03T01:44:31.595Z,0.00
2023-02-03T01:45:31.571Z,0.00
2023-02-03T01:46:31.600Z,0.00
2023-02-03T01:47:31.520Z,0.00
2023-02-03T01:48:31.520Z,0.00
2023-02-03T01:49:31.492Z,0.00
2023-02-03T01:50:31.516Z,0.00
2023-02-03T01:51:31.469Z,0.00
2023-02-03T01:52:31.481Z,0.00
2023-02-03T01:53:31.443Z,0.00
2023-02-03T01:54:31.434Z,0.00
2023-02-03T01:55:31.431Z,0.00
2023-02-03T01:56:31.411Z,0.00
2023-02-03T01:57:31.393Z,0.00
2023-02-03T01:58:31.382Z,0.00
2023-02-03T01:59:31.367Z,0.00
2023-02-03T02:00:31.379Z,0.00
2023-02-03T02:01:31.382Z,0.00
2023-02-03T02:02:31.373Z,0.00
2023-02-03T02:03:31.307Z,0.00
2023-02-03T02:04:31.301Z,0.00
2023-02-03T02:05:31.292Z,0.00
2023-02-03T02:06:31.277Z,0.00
2023-02-03T02:07:31.259Z,0.00
2023-02-03T02:08:31.266Z,0.00
2023-02-03T02:09:31.223Z,0.00
2023-02-03T02:10:31.254Z,0.00
2023-02-03T02:11:31.213Z,0.00
2023-02-03T02:12:31.213Z,0.00
2023-02-03T02:13:31.179Z,0.00
2023-02-03T02:14:31.186Z,0.00
2023-02-03T02:15:31.213Z,0.00
2023-02-03T02:16:31.133Z,0.00
2023-02-03T02:17:31.132Z,0.00
2023-02-03T02:18:31.106Z,0.00
2023-02-03T02:19:31.087Z,0.00
2023-02-03T02:20:31.113Z,0.00
2023-02-03T02:21:31.064Z,0.00
2023-02-03T02:22:31.053Z,0.00
2023-02-03T02:23:31.035Z,0.00
2023-02-03T02:24:31.024Z,0.00
2023-02-03T02:25:31.034Z,0.00
2023-02-03T02:26:31.007Z,0.00
2023-02-03T02:27:30.985Z,0.00
2023-02-03T02:28:30.976Z,0.00
2023-02-03T02:29:30.972Z,0.00
2023-02-03T02:30:30.993Z,0.00
2023-02-03T02:31:31.054Z,0.00
2023-02-03T02:32:30.928Z,0.00
2023-02-03T02:33:30.912Z,0.00
2023-02-03T02:34:30.904Z,0.00
2023-02-03T02:35:31.307Z,0.00
2023-02-03T02:36:30.882Z,0.00
2023-02-03T02:37:30.846Z,0.00
2023-02-03T02:38:30.836Z,0.00
2023-02-03T02:39:30.829Z,0.00
2023-02-03T02:40:30.806Z,0.00
2023-02-03T02:41:30.807Z,0.00
2023-02-03T02:42:30.786Z,0.00
2023-02-03T02:43:30.777Z,0.00
2023-02-03T02:44:30.760Z,0.00
2023-02-03T02:45:30.737Z,0.00
2023-02-03T02:46:30.765Z,0.00
2023-02-03T02:47:30.707Z,0.00
2023-02-03T02:48:30.712Z,0.00
2023-02-03T02:49:30.694Z,0.00
2023-02-03T02:50:30.678Z,0.00
2023-02-03T02:51:30.671Z,0.00
2023-02-03T02:52:30.657Z,0.00
2023-02-03T02:53:30.638Z,0.00
2023-02-03T02:54:30.631Z,0.00
2023-02-03T02:55:30.616Z,0.00
2023-02-03T02:56:30.619Z,0.00
2023-02-03T02:57:30.583Z,0.00
2023-02-03T02:58:30.586Z,0.00
2023-02-03T02:59:30.563Z,0.00
2023-02-03T03:00:30.546Z,0.00
2023-02-03T03:01:30.585Z,0.00
2023-02-03T03:02:30.513Z,0.00
2023-02-03T03:03:30.505Z,0.00
2023-02-03T03:04:30.541Z,0.00
2023-02-03T03:05:30.470Z,0.00
2023-02-03T03:06:30.469Z,0.00
2023-02-03T03:07:30.442Z,0.00
2023-02-03T03:08:30.432Z,0.00
2023-02-03T03:09:30.499Z,0.00
2023-02-03T03:10:30.413Z,0.00
2023-02-03T03:11:30.420Z,0.00
2023-02-03T03:12:30.385Z,0.00
2023-02-03T03:13:30.360Z,0.00
2023-02-03T03:14:30.349Z,0.00
2023-02-03T03:15:30.341Z,0.00
2023-02-03T03:16:30.339Z,0.00
2023-02-03T03:17:30.316Z,0.00
2023-02-03T03:18:30.302Z,0.00
2023-02-03T03:19:30.291Z,0.00
2023-02-03T03:20:30.281Z,0.00
2023-02-03T03:21:30.273Z,0.00
2023-02-03T03:22:30.246Z,0.00
2023-02-03T03:23:30.262Z,0.00
2023-02-03T03:24:30.224Z,0.00
2023-02-03T03:25:30.200Z,0.00
2023-02-03T03:26:30.228Z,0.00
2023-02-03T03:27:30.174Z,0.00
2023-02-03T03:28:30.182Z,0.00
2023-02-03T03:29:30.154Z,0.00
2023-02-03T03:30:30.139Z,0.00
2023-02-03T03:31:30.199Z,0.00
2023-02-03T03:32:30.121Z,0.00
2023-02-03T03:33:30.104Z,0.00
2023-02-03T03:34:30.095Z,0.00
2023-02-03T03:35:30.075Z,0.00
2023-02-03T03:36:30.077Z,0.00
2023-02-03T03:37:30.062Z,0.00
2023-02-03T03:38:30.053Z,0.00
2023-02-03T03:39:30.019Z,0.00
2023-02-03T03:40:30.045Z,0.00
2023-02-03T03:41:29.982Z,0.00
2023-02-03T03:42:31.783Z,0.00
2023-02-03T03:43:29.962Z,0.00
2023-02-03T03:44:30.103Z,0.00
2023-02-03T03:45:29.973Z,0.00
2023-02-03T03:46:29.956Z,0.00
2023-02-03T03:47:29.912Z,0.00
2023-02-03T03:48:29.893Z,0.00
2023-02-03T03:49:29.884Z,0.00
2023-02-03T03:50:29.882Z,0.00
2023-02-03T03:51:29.868Z,0.00
2023-02-03T03:52:29.854Z,0.00
2023-02-03T03:53:29.835Z,0.00
2023-02-03T03:54:29.827Z,0.00
2023-02-03T03:55:29.806Z,0.00
2023-02-03T03:56:29.805Z,0.00
2023-02-03T03:57:29.783Z,0.00
2023-02-03T03:58:29.775Z,0.00
2023-02-03T03:59:29.749Z,0.00
2023-02-03T04:00:29.872Z,0.00
2023-02-03T04:01:29.839Z,0.00
2023-02-03T04:02:29.869Z,0.00
2023-02-03T04:03:29.728Z,0.00
2023-02-03T04:04:29.687Z,0.00
2023-02-03T04:05:29.691Z,0.00
2023-02-03T04:06:29.656Z,0.00
2023-02-03T04:07:29.636Z,0.00
2023-02-03T04:08:29.626Z,0.00
2023-02-03T04:09:29.609Z,0.00
2023-02-03T04:10:29.765Z,0.00
2023-02-03T04:11:29.585Z,0.00
2023-02-03T04:12:29.567Z,0.00
2023-02-03T04:13:29.560Z,0.00
2023-02-03T04:14:29.549Z,0.00
2023-02-03T04:15:29.555Z,0.00
2023-02-03T04:16:29.580Z,0.00
2023-02-03T04:17:29.508Z,0.00
2023-02-03T04:18:29.502Z,0.00
2023-02-03T04:19:29.497Z,0.00
2023-02-03T04:20:29.750Z,0.00
2023-02-03T04:21:29.451Z,0.00
2023-02-03T04:22:29.450Z,0.00
2023-02-03T04:23:29.425Z,0.00
2023-02-03T04:24:29.411Z,0.00
2023-02-03T04:25:29.417Z,0.00
2023-02-03T04:26:29.420Z,0.00
2023-02-03T04:27:29.367Z,0.00
2023-02-03T04:28:29.358Z,0.00
2023-02-03T04:29:29.349Z,0.00
2023-02-03T04:30:29.650Z,0.00
2023-02-03T04:31:29.402Z,0.00
2023-02-03T04:32:29.310Z,0.00
2023-02-03T04:33:29.298Z,0.00
2023-02-03T04:34:29.279Z,0.00
2023-02-03T04:35:29.289Z,0.00
2023-02-03T04:36:29.249Z,0.00
2023-02-03T04:37:29.231Z,0.00
2023-02-03T04:38:29.229Z,0.00
2023-02-03T04:39:29.205Z,0.00
2023-02-03T04:40:29.450Z,0.00
2023-02-03T04:41:29.199Z,0.00
2023-02-03T04:42:29.191Z,0.00
2023-02-03T04:43:29.149Z,0.00
2023-02-03T04:44:29.155Z,0.00
2023-02-03T04:45:29.188Z,0.00
2023-02-03T04:46:29.122Z,0.00
2023-02-03T04:47:29.117Z,0.00
2023-02-03T04:48:29.108Z,0.00
2023-02-03T04:49:29.085Z,0.00
2023-02-03T04:50:29.310Z,0.00
2023-02-03T04:51:29.065Z,0.00
2023-02-03T04:52:29.054Z,0.00
2023-02-03T04:53:29.033Z,0.00
2023-02-03T04:54:29.015Z,0.00
2023-02-03T04:55:29.026Z,0.00
2023-02-03T04:56:28.986Z,0.00
2023-02-03T04:57:28.999Z,0.00
2023-02-03T04:58:28.975Z,0.00
2023-02-03T04:59:28.971Z,0.00
2023-02-03T05:00:29.257Z,0.00
2023-02-03T05:01:28.927Z,0.00
2023-02-03T05:02:28.905Z,0.00
2023-02-03T05:03:28.920Z,0.00
2023-02-03T05:04:28.876Z,0.00
2023-02-03T05:05:28.895Z,0.00
2023-02-03T05:06:28.864Z,0.00
2023-02-03T05:07:28.893Z,0.00
2023-02-03T05:08:28.830Z,0.00
2023-02-03T05:09:28.817Z,0.00
2023-02-03T05:10:29.071Z,0.00
2023-02-03T05:11:28.793Z,0.00
2023-02-03T05:12:28.766Z,0.00
2023-02-03T05:13:28.769Z,0.00
2023-02-03T05:14:28.747Z,0.00
2023-02-03T05:15:28.759Z,0.00
2023-02-03T05:16:28.745Z,0.00
2023-02-03T05:17:28.707Z,0.00
2023-02-03T05:18:28.690Z,0.00
2023-02-03T05:19:28.686Z,0.00
2023-02-03T05:20:28.959Z,0.00
2023-02-03T05:21:28.654Z,0.00
2023-02-03T05:22:28.831Z,0.00
2023-02-03T05:23:28.621Z,0.00
2023-02-03T05:24:28.614Z,0.00
2023-02-03T05:25:28.622Z,0.00
2023-02-03T05:26:28.578Z,0.00
2023-02-03T05:27:28.568Z,0.00
2023-02-03T05:28:28.559Z,0.00
2023-02-03T05:29:28.551Z,0.00
2023-02-03T05:30:28.896Z,0.00
2023-02-03T05:31:28.541Z,0.00
2023-02-03T05:32:28.500Z,0.00
2023-02-03T05:33:28.499Z,0.00
2023-02-03T05:34:28.478Z,0.00
2023-02-03T05:35:28.485Z,0.00
2023-02-03T05:36:28.461Z,0.00
2023-02-03T05:37:28.445Z,0.00
2023-02-03T05:38:28.428Z,0.00
2023-02-03T05:39:28.420Z,0.00
2023-02-03T05:40:28.754Z,0.00
2023-02-03T05:41:28.388Z,0.00
2023-02-03T05:42:28.369Z,0.00
2023-02-03T05:43:28.360Z,0.00
2023-02-03T05:44:28.342Z,0.00
2023-02-03T05:45:28.421Z,0.00
2023-02-03T05:46:28.338Z,0.00
2023-02-03T05:47:28.318Z,0.00
2023-02-03T05:48:28.289Z,0.00
2023-02-03T05:49:28.283Z,0.00
2023-02-03T05:50:28.591Z,0.00
2023-02-03T05:51:28.279Z,0.00
2023-02-03T05:52:28.239Z,0.00
2023-02-03T05:53:28.240Z,0.00
2023-02-03T05:54:28.216Z,0.00
2023-02-03T05:55:28.219Z,0.00
2023-02-03T05:56:28.181Z,0.00
2023-02-03T05:57:28.171Z,0.00
2023-02-03T05:58:28.163Z,0.00
2023-02-03T05:59:28.161Z,0.00
2023-02-03T06:00:28.459Z,0.00
2023-02-03T06:01:28.145Z,0.00
2023-02-03T06:02:28.102Z,0.00
2023-02-03T06:03:28.137Z,0.00
2023-02-03T06:04:28.145Z,0.00
2023-02-03T06:05:28.083Z,0.00
2023-02-03T06:06:28.074Z,0.00
2023-02-03T06:07:28.055Z,0.00
2023-02-03T06:08:28.017Z,0.00
2023-02-03T06:09:28.012Z,0.00
2023-02-03T06:10:28.329Z,0.00
2023-02-03T06:11:27.982Z,0.00
2023-02-03T06:12:29.368Z,0.00
2023-02-03T06:13:27.960Z,0.00
2023-02-03T06:14:27.942Z,0.00
2023-02-03T06:15:27.945Z,0.00
2023-02-03T06:16:27.993Z,0.00
2023-02-03T06:17:27.904Z,0.00
2023-02-03T06:18:27.890Z,0.00
2023-02-03T06:19:27.876Z,0.00
2023-02-03T06:20:28.127Z,0.00
2023-02-03T06:21:27.866Z,0.00
2023-02-03T06:22:27.834Z,0.00
2023-02-03T06:23:27.825Z,0.00
2023-02-03T06:24:27.805Z,0.00
2023-02-03T06:25:27.814Z,0.00
2023-02-03T06:26:27.782Z,0.00
2023-02-03T06:27:27.773Z,0.00
2023-02-03T06:28:27.755Z,0.00
2023-02-03T06:29:27.753Z,0.00
2023-02-03T06:30:28.083Z,0.00
2023-02-03T06:31:27.841Z,0.00
2023-02-03T06:32:27.695Z,0.00
2023-02-03T06:33:27.691Z,0.00
2023-02-03T06:34:27.671Z,0.00
2023-02-03T06:35:27.688Z,0.00
2023-02-03T06:36:27.655Z,0.00
2023-02-03T06:37:27.646Z,0.00
2023-02-03T06:38:27.619Z,0.00
2023-02-03T06:39:27.618Z,0.00
2023-02-03T06:40:28.088Z,0.00
2023-02-03T06:41:27.585Z,0.00
2023-02-03T06:42:27.589Z,0.00
2023-02-03T06:43:27.555Z,0.00
2023-02-03T06:44:27.537Z,0.00
2023-02-03T06:45:27.562Z,0.00
2023-02-03T06:46:27.548Z,0.00
2023-02-03T06:47:27.527Z,0.00
2023-02-03T06:48:27.494Z,0.00
2023-02-03T06:49:27.477Z,0.00
2023-02-03T06:50:27.794Z,0.00
2023-02-03T06:51:27.458Z,0.00
2023-02-03T06:52:27.446Z,0.00
2023-02-03T06:53:27.418Z,0.00
2023-02-03T06:54:27.415Z,0.00
2023-02-03T06:55:27.410Z,0.00
2023-02-03T06:56:27.379Z,0.00
2023-02-03T06:57:27.401Z,0.00
2023-02-03T06:58:27.349Z,0.00
2023-02-03T06:59:27.458Z,0.00
2023-02-03T07:00:27.667Z,0.00
2023-02-03T07:01:27.428Z,0.00
2023-02-03T07:02:27.319Z,0.00
2023-02-03T07:03:27.316Z,0.00
2023-02-03T07:04:27.270Z,0.00
2023-02-03T07:05:27.289Z,0.00
2023-02-03T07:06:27.244Z,0.00
2023-02-03T07:07:27.229Z,0.00
2023-02-03T07:08:27.252Z,0.00
2023-02-03T07:09:27.208Z,0.00
2023-02-03T07:10:27.481Z,0.00
2023-02-03T07:11:27.180Z,0.00
2023-02-03T07:12:27.172Z,0.00
2023-02-03T07:13:27.157Z,0.00
2023-02-03T07:14:27.140Z,0.00
2023-02-03T07:15:27.146Z,0.00
2023-02-03T07:16:27.111Z,0.00
2023-02-03T07:17:27.104Z,0.00
2023-02-03T07:19:28.069Z,0.00
2023-02-03T07:20:27.355Z,0.00
2023-02-03T07:21:27.059Z,0.00
2023-02-03T07:22:27.025Z,0.00
2023-02-03T07:23:27.021Z,0.00
2023-02-03T07:24:27.009Z,0.00
2023-02-03T07:25:34.073Z,5.62
2023-02-03T07:26:26.975Z,5.62
2023-02-03T07:27:26.971Z,0.00
2023-02-03T07:28:26.960Z,0.00
2023-02-03T07:29:26.961Z,0.00
2023-02-03T07:30:27.256Z,0.00
2023-02-03T07:31:27.009Z,0.00
2023-02-03T07:32:26.913Z,0.00
2023-02-03T07:33:26.895Z,0.00
2023-02-03T07:34:26.872Z,0.00
2023-02-03T07:35:26.885Z,0.00
2023-02-03T07:36:26.846Z,0.00
2023-02-03T07:37:26.833Z,0.00
2023-02-03T07:38:26.824Z,0.00
2023-02-03T07:39:26.849Z,0.00
2023-02-03T07:40:27.021Z,0.00
2023-02-03T07:41:26.784Z,0.00
2023-02-03T07:42:26.763Z,0.00
2023-02-03T07:43:26.756Z,0.00
2023-02-03T07:44:26.740Z,0.00
2023-02-03T07:45:26.751Z,5.62
2023-02-03T07:46:26.750Z,5.62
2023-02-03T07:47:26.694Z,5.62
2023-02-03T07:48:26.695Z,5.62
2023-02-03T07:49:26.673Z,5.62
2023-02-03T07:50:27.085Z,5.62
2023-02-03T07:51:26.659Z,0.00
2023-02-03T07:52:26.663Z,5.62
2023-02-03T07:53:26.633Z,5.62
2023-02-03T07:54:26.597Z,5.62
2023-02-03T07:55:26.644Z,5.62
2023-02-03T07:56:26.576Z,5.62
2023-02-03T07:57:26.591Z,5.62
2023-02-03T07:58:26.628Z,5.62
2023-02-03T07:59:26.617Z,5.62
2023-02-03T08:00:26.939Z,5.62
2023-02-03T08:01:26.537Z,5.62
2023-02-03T08:02:26.505Z,5.62
2023-02-03T08:03:26.497Z,5.62
2023-02-03T08:04:26.466Z,5.62
2023-02-03T08:05:26.470Z,5.62
2023-02-03T08:06:26.455Z,5.62
2023-02-03T08:07:26.441Z,5.62
2023-02-03T08:08:26.442Z,5.62
2023-02-03T08:09:26.398Z,5.62
2023-02-03T08:10:26.652Z,5.62
2023-02-03T08:11:26.411Z,5.62
2023-02-03T08:12:26.365Z,5.62
2023-02-03T08:13:26.349Z,5.62
2023-02-03T08:14:26.346Z,5.62
2023-02-03T08:15:26.333Z,5.62
2023-02-03T08:16:26.368Z,5.62
2023-02-03T08:17:26.313Z,5.62
2023-02-03T08:18:26.279Z,5.62
2023-02-03T08:19:26.282Z,5.62
2023-02-03T08:20:26.710Z,5.62
2023-02-03T08:21:26.288Z,5.62
2023-02-03T08:22:26.230Z,5.62
2023-02-03T08:23:26.219Z,11.25
2023-02-03T08:24:26.220Z,5.62
2023-02-03T08:25:26.190Z,11.25
2023-02-03T08:26:26.200Z,11.25
2023-02-03T08:27:26.185Z,5.62
2023-02-03T08:28:26.158Z,5.62
2023-02-03T08:29:26.141Z,5.62
2023-02-03T08:30:26.330Z,5.62
2023-02-03T08:31:26.220Z,5.62
2023-02-03T08:32:26.148Z,11.25
2023-02-03T08:33:26.090Z,11.25
2023-02-03T08:34:26.063Z,11.25
2023-02-03T08:35:26.051Z,11.25
2023-02-03T08:36:26.053Z,11.25
2023-02-03T08:37:26.024Z,11.25
2023-02-03T08:38:26.040Z,16.88
2023-02-03T08:39:25.990Z,16.88
2023-02-03T08:40:26.442Z,16.88
2023-02-03T08:41:26.009Z,16.88
2023-02-03T08:42:25.952Z,16.88
2023-02-03T08:43:25.949Z,16.88
2023-02-03T08:44:25.930Z,16.88
2023-02-03T08:45:25.933Z,11.25
2023-02-03T08:46:25.912Z,11.25
2023-02-03T08:47:25.897Z,11.25
2023-02-03T08:48:25.862Z,11.25
2023-02-03T08:49:25.882Z,11.25
2023-02-03T08:50:26.295Z,11.25
2023-02-03T08:51:25.862Z,11.25
2023-02-03T08:52:25.837Z,11.25
2023-02-03T08:53:25.804Z,11.25
2023-02-03T08:54:25.807Z,11.25
2023-02-03T08:55:25.812Z,11.25
2023-02-03T08:56:25.795Z,11.25
2023-02-03T08:57:25.780Z,5.62
2023-02-03T08:58:25.763Z,11.25
2023-02-03T08:59:25.755Z,11.25
2023-02-03T09:00:25.983Z,11.25
2023-02-03T09:01:25.866Z,11.25
2023-02-03T09:02:25.709Z,11.25
2023-02-03T09:03:25.666Z,11.25
2023-02-03T09:04:25.728Z,11.25
2023-02-03T09:05:25.654Z,11.25
2023-02-03T09:06:26.337Z,5.62
2023-02-03T09:07:25.633Z,11.25
2023-02-03T09:08:25.605Z,5.62
2023-02-03T09:09:25.591Z,11.25
2023-02-03T09:10:25.899Z,11.25
2023-02-03T09:11:25.604Z,5.62
2023-02-03T09:12:25.556Z,11.25
2023-02-03T09:13:25.545Z,11.25
2023-02-03T09:14:25.526Z,11.25
2023-02-03T09:15:25.537Z,11.25
2023-02-03T09:16:25.591Z,11.25
2023-02-03T09:17:25.490Z,11.25
2023-02-03T09:18:25.475Z,11.25
2023-02-03T09:19:25.466Z,11.25
2023-02-03T09:20:25.743Z,11.25
2023-02-03T09:21:34.909Z,11.25
2023-02-03T09:22:26.426Z,11.25
2023-02-03T09:23:25.401Z,11.25
2023-02-03T09:24:25.399Z,11.25
2023-02-03T09:25:25.368Z,16.88
2023-02-03T09:26:25.386Z,11.25
2023-02-03T09:27:25.471Z,16.88
2023-02-03T09:28:25.357Z,11.25
2023-02-03T09:29:25.341Z,11.25
2023-02-03T09:30:25.504Z,11.25
2023-02-03T09:31:25.327Z,11.25
2023-02-03T09:32:25.284Z,16.88
2023-02-03T09:33:25.268Z,16.88
2023-02-03T09:34:25.264Z,16.88
2023-02-03T09:35:25.275Z,11.25
2023-02-03T09:36:25.260Z,11.25
2023-02-03T09:37:25.238Z,16.88
2023-02-03T09:38:25.210Z,16.88
2023-02-03T09:39:25.190Z,16.88
2023-02-03T09:40:25.480Z,11.25
2023-02-03T09:41:25.198Z,16.88
2023-02-03T09:42:25.153Z,16.88
2023-02-03T09:43:25.215Z,16.88
2023-02-03T09:44:25.149Z,16.88
2023-02-03T09:45:25.130Z,16.88
2023-02-03T09:46:25.167Z,16.88
2023-02-03T09:47:25.092Z,16.88
2023-02-03T09:48:25.094Z,16.88
2023-02-03T09:49:25.051Z,16.88
2023-02-03T09:50:25.406Z,16.88
2023-02-03T09:51:25.072Z,16.88
2023-02-03T09:52:25.032Z,16.88
2023-02-03T09:53:25.016Z,16.88
2023-02-03T09:54:24.990Z,16.88
2023-02-03T09:55:24.975Z,16.88
2023-02-03T09:56:24.972Z,16.88
2023-02-03T09:57:24.949Z,16.88
2023-02-03T09:58:24.952Z,16.88
2023-02-03T09:59:24.911Z,22.50
2023-02-03T10:00:25.030Z,16.88
2023-02-03T10:01:24.950Z,16.88
2023-02-03T10:02:24.917Z,22.50
2023-02-03T10:03:24.860Z,22.50
2023-02-03T10:04:24.900Z,22.50
2023-02-03T10:05:24.829Z,22.50
2023-02-03T10:06:24.896Z,22.50
2023-02-03T10:07:24.819Z,22.50
2023-02-03T10:08:24.800Z,16.88
2023-02-03T10:09:24.814Z,22.50
2023-02-03T10:10:24.846Z,16.88
2023-02-03T10:11:24.771Z,16.88
2023-02-03T10:12:24.742Z,16.88
2023-02-03T10:13:24.722Z,16.88
2023-02-03T10:14:24.753Z,16.88
2023-02-03T10:15:24.703Z,16.88
2023-02-03T10:16:24.827Z,22.50
2023-02-03T10:17:24.750Z,22.50
2023-02-03T10:18:24.662Z,22.50
2023-02-03T10:19:24.650Z,22.50
2023-02-03T10:20:24.694Z,28.12
2023-02-03T10:21:24.652Z,28.12
2023-02-03T10:22:24.613Z,22.50
2023-02-03T10:23:24.594Z,22.50
2023-02-03T10:24:24.585Z,22.50
2023-02-03T10:25:24.561Z,22.50
2023-02-03T10:26:24.613Z,28.12
2023-02-03T10:27:24.560Z,28.12
2023-02-03T10:28:24.547Z,28.12
2023-02-03T10:29:24.522Z,28.12
2023-02-03T10:30:24.521Z,22.50
2023-02-03T10:31:24.583Z,28.12
2023-02-03T10:32:24.479Z,28.12
2023-02-03T10:33:24.455Z,33.75
2023-02-03T10:34:24.452Z,28.12
2023-02-03T10:35:24.437Z,33.75
2023-02-03T10:36:24.442Z,28.12
2023-02-03T10:37:24.402Z,33.75
2023-02-03T10:38:24.425Z,33.75
2023-02-03T10:39:24.402Z,33.75
2023-02-03T10:40:24.385Z,33.75
2023-02-03T10:41:24.537Z,39.38
2023-02-03T10:42:24.344Z,39.38
2023-02-03T10:43:24.322Z,45.00
2023-02-03T10:44:24.317Z,39.38
2023-02-03T10:45:24.305Z,39.38
2023-02-03T10:46:24.410Z,33.75
2023-02-03T10:47:24.305Z,39.38
2023-02-03T10:48:24.270Z,39.38
2023-02-03T10:49:24.261Z,33.75
2023-02-03T10:50:24.550Z,45.00
2023-02-03T10:51:24.234Z,39.38
2023-02-03T10:52:24.219Z,39.38
2023-02-03T10:53:24.223Z,39.38
2023-02-03T10:54:24.178Z,39.38
2023-02-03T10:55:24.168Z,33.75
2023-02-03T10:56:24.175Z,39.38
2023-02-03T10:57:24.136Z,33.75
2023-02-03T10:58:24.135Z,39.38
2023-02-03T10:59:24.108Z,39.38
2023-02-03T11:00:24.186Z,33.75
2023-02-03T11:01:24.128Z,33.75
2023-02-03T11:02:24.117Z,39.38
2023-02-03T11:03:24.056Z,50.62
2023-02-03T11:04:24.039Z,45.00
2023-02-03T11:05:24.039Z,50.62
2023-02-03T11:06:24.042Z,39.38
2023-02-03T11:07:23.996Z,39.38
2023-02-03T11:08:24.000Z,33.75
2023-02-03T11:09:23.969Z,39.38
2023-02-03T11:10:24.011Z,39.38
2023-02-03T11:11:24.827Z,45.00
2023-02-03T11:12:23.948Z,45.00
2023-02-03T11:13:23.956Z,39.38
2023-02-03T11:14:23.918Z,39.38
2023-02-03T11:15:23.898Z,39.38
2023-02-03T11:16:23.966Z,39.38
2023-02-03T11:17:23.883Z,39.38
2023-02-03T11:18:23.870Z,39.38
2023-02-03T11:19:23.841Z,39.38
2023-02-03T11:20:23.838Z,33.75
2023-02-03T11:21:23.830Z,39.38
2023-02-03T11:22:23.818Z,33.75
2023-02-03T11:23:23.794Z,33.75
2023-02-03T11:24:23.795Z,33.75
2023-02-03T11:25:23.778Z,28.12
2023-02-03T11:26:23.813Z,22.50
2023-02-03T11:27:23.740Z,22.50
2023-02-03T11:28:23.720Z,22.50
2023-02-03T11:29:23.987Z,22.50
2023-02-03T11:30:23.691Z,22.50
2023-02-03T11:31:23.877Z,28.12
2023-02-03T11:32:23.671Z,28.12
2023-02-03T11:33:23.653Z,28.12
2023-02-03T11:34:23.643Z,22.50
2023-02-03T11:35:24.229Z,22.50
2023-02-03T11:36:23.637Z,16.88
2023-02-03T11:37:23.623Z,16.88
2023-02-03T11:38:23.590Z,22.50
2023-02-03T11:39:23.579Z,22.50
2023-02-03T11:40:23.606Z,22.50
2023-02-03T11:41:24.069Z,16.88
2023-02-03T11:42:23.542Z,16.88
2023-02-03T11:43:23.513Z,22.50
2023-02-03T11:44:23.516Z,22.50
2023-02-03T11:45:23.495Z,22.50
2023-02-03T11:46:23.587Z,22.50
2023-02-03T11:47:23.955Z,22.50
2023-02-03T11:48:23.453Z,22.50
2023-02-03T11:49:23.443Z,28.12
2023-02-03T11:50:23.432Z,28.12
2023-02-03T11:51:23.475Z,28.12
2023-02-03T11:52:23.403Z,22.50
2023-02-03T11:53:24.173Z,22.50
2023-02-03T11:54:23.389Z,28.12
2023-02-03T11:55:23.368Z,22.50
2023-02-03T11:56:23.374Z,22.50
2023-02-03T11:57:23.345Z,22.50
2023-02-03T11:58:23.360Z,22.50
2023-02-03T11:59:23.334Z,22.50
2023-02-03T12:00:23.295Z,28.12
2023-02-03T12:01:23.315Z,22.50
2023-02-03T12:02:23.267Z,22.50
2023-02-03T12:03:23.247Z,22.50
2023-02-03T12:04:23.293Z,22.50
2023-02-03T12:05:23.228Z,22.50
2023-02-03T12:06:23.247Z,16.88
2023-02-03T12:07:23.198Z,16.88
2023-02-03T12:08:23.207Z,16.88
2023-02-03T12:09:23.238Z,16.88
2023-02-03T12:10:23.192Z,22.50
2023-02-03T12:11:24.086Z,22.50
2023-02-03T12:12:23.143Z,16.88
2023-02-03T12:13:23.122Z,16.88
2023-02-03T12:14:23.111Z,16.88
2023-02-03T12:15:23.094Z,16.88
2023-02-03T12:16:23.152Z,16.88
2023-02-03T12:17:23.896Z,16.88
2023-02-03T12:18:23.059Z,22.50
2023-02-03T12:19:23.045Z,22.50
2023-02-03T12:20:23.030Z,16.88
2023-02-03T12:21:23.030Z,16.88
2023-02-03T12:22:23.010Z,22.50
2023-02-03T12:23:23.853Z,22.50
2023-02-03T12:24:22.990Z,22.50
2023-02-03T12:25:22.970Z,22.50
2023-02-03T12:26:22.985Z,16.88
2023-02-03T12:27:22.930Z,16.88
2023-02-03T12:28:32.816Z,16.88
2023-02-03T12:29:23.931Z,16.88
2023-02-03T12:30:22.925Z,16.88
2023-02-03T12:31:23.016Z,16.88
2023-02-03T12:32:22.865Z,16.88
2023-02-03T12:33:22.853Z,16.88
2023-02-03T12:34:22.862Z,16.88
2023-02-03T12:35:22.826Z,16.88
2023-02-03T12:36:22.848Z,16.88
2023-02-03T12:37:22.809Z,22.50
2023-02-03T12:38:22.821Z,22.50
2023-02-03T12:39:22.775Z,22.50
2023-02-03T12:40:22.790Z,22.50
2023-02-03T12:41:22.756Z,22.50
2023-02-03T12:42:22.736Z,22.50
2023-02-03T12:43:22.732Z,28.12
2023-02-03T12:44:22.714Z,33.75
2023-02-03T12:45:22.709Z,33.75
2023-02-03T12:46:22.759Z,33.75
2023-02-03T12:47:22.677Z,33.75
2023-02-03T12:48:22.670Z,33.75
2023-02-03T12:49:22.641Z,33.75
2023-02-03T12:50:22.625Z,33.75
2023-02-03T12:51:22.634Z,28.12
2023-02-03T12:52:22.607Z,28.12
2023-02-03T12:53:22.576Z,28.12
2023-02-03T12:54:22.587Z,33.75
2023-02-03T12:55:22.546Z,33.75
2023-02-03T12:56:22.629Z,28.12
2023-02-03T12:57:22.527Z,28.12
2023-02-03T12:58:22.519Z,22.50
2023-02-03T12:59:22.506Z,28.12
2023-02-03T13:00:22.510Z,28.12
2023-02-03T13:01:22.581Z,28.12
2023-02-03T13:02:22.490Z,33.75
2023-02-03T13:03:22.453Z,28.12
2023-02-03T13:04:22.439Z,33.75
2023-02-03T13:05:22.427Z,45.00
2023-02-03T13:06:22.442Z,45.00
2023-02-03T13:07:22.404Z,45.00
2023-02-03T13:08:22.400Z,33.75
2023-02-03T13:09:22.373Z,33.75
2023-02-03T13:10:22.354Z,39.38